sensor_id;sensor_type;location;lat;lon;timestamp;pressure;altitude;pressure_sealevel;temperature;humidity
73842;BME280;62184;52.006;5.924;2022-07-29T00:00:25;100980.88;;;15.90;56.33
73842;BME280;62184;52.006;5.924;2022-07-29T00:02:51;100975.50;;;15.90;56.51
73842;BME280;62184;52.006;5.924;2022-07-29T00:05:18;100970.09;;;15.90;56.68
73842;BME280;62184;52.006;5.924;2022-07-29T00:07:44;100974.63;;;15.90;56.56
73842;BME280;62184;52.006;5.924;2022-07-29T00:10:10;100962.22;;;15.86;56.76
73842;BME280;62184;52.006;5.924;2022-07-29T00:12:37;100964.03;;;15.85;57.09
73842;BME280;62184;52.006;5.924;2022-07-29T00:15:07;100961.56;;;15.81;56.59
73842;BME280;62184;52.006;5.924;2022-07-29T00:17:34;100959.81;;;15.80;56.77
73842;BME280;62184;52.006;5.924;2022-07-29T00:20:00;100959.00;;;15.78;56.90
73842;BME280;62184;52.006;5.924;2022-07-29T00:22:27;100957.22;;;15.77;56.59
73842;BME280;62184;52.006;5.924;2022-07-29T00:24:53;100960.09;;;15.74;57.04
73842;BME280;62184;52.006;5.924;2022-07-29T00:27:19;100958.41;;;15.71;57.74
73842;BME280;62184;52.006;5.924;2022-07-29T00:29:46;100953.06;;;15.69;57.22
73842;BME280;62184;52.006;5.924;2022-07-29T00:32:15;100945.94;;;15.68;57.25
73842;BME280;62184;52.006;5.924;2022-07-29T00:34:41;100945.13;;;15.66;57.37
73842;BME280;62184;52.006;5.924;2022-07-29T00:37:08;100941.47;;;15.67;57.07
73842;BME280;62184;52.006;5.924;2022-07-29T00:39:34;100944.13;;;15.69;58.09
73842;BME280;62184;52.006;5.924;2022-07-29T00:42:02;100943.22;;;15.68;57.29
73842;BME280;62184;52.006;5.924;2022-07-29T00:44:29;100932.69;;;15.64;57.73
73842;BME280;62184;52.006;5.924;2022-07-29T00:46:56;100937.19;;;15.63;57.72
73842;BME280;62184;52.006;5.924;2022-07-29T00:49:25;100935.44;;;15.62;57.63
73842;BME280;62184;52.006;5.924;2022-07-29T00:51:51;100936.31;;;15.63;57.61
73842;BME280;62184;52.006;5.924;2022-07-29T00:54:17;100935.38;;;15.64;57.44
73842;BME280;62184;52.006;5.924;2022-07-29T00:56:44;100926.47;;;15.62;58.00
73842;BME280;62184;52.006;5.924;2022-07-29T00:59:10;100922.06;;;15.59;58.18
73842;BME280;62184;52.006;5.924;2022-07-29T01:01:37;100923.94;;;15.57;58.22
73842;BME280;62184;52.006;5.924;2022-07-29T01:04:05;100916.09;;;15.53;58.20
73842;BME280;62184;52.006;5.924;2022-07-29T01:06:35;100925.91;;;15.54;58.23
73842;BME280;62184;52.006;5.924;2022-07-29T01:09:01;100933.00;;;15.56;57.88
73842;BME280;62184;52.006;5.924;2022-07-29T01:11:28;100937.28;;;15.60;57.55
73842;BME280;62184;52.006;5.924;2022-07-29T01:13:55;100927.28;;;15.64;57.87
73842;BME280;62184;52.006;5.924;2022-07-29T01:16:31;100925.38;;;15.66;57.52
73842;BME280;62184;52.006;5.924;2022-07-29T01:19:06;100936.69;;;15.74;57.76
73842;BME280;62184;52.006;5.924;2022-07-29T01:21:50;100926.00;;;15.73;58.34
73842;BME280;62184;52.006;5.924;2022-07-29T01:24:42;100926.19;;;15.68;59.08
73842;BME280;62184;52.006;5.924;2022-07-29T01:27:38;100928.28;;;15.61;58.25
73842;BME280;62184;52.006;5.924;2022-07-29T01:30:16;100931.88;;;15.62;57.89
73842;BME280;62184;52.006;5.924;2022-07-29T01:32:47;100919.28;;;15.62;57.96
73842;BME280;62184;52.006;5.924;2022-07-29T01:35:21;100925.47;;;15.64;58.09
73842;BME280;62184;52.006;5.924;2022-07-29T01:37:55;100903.94;;;15.64;57.83
73842;BME280;62184;52.006;5.924;2022-07-29T01:40:30;100922.94;;;15.60;58.19
73842;BME280;62184;52.006;5.924;2022-07-29T01:43:09;100916.03;;;15.54;58.68
73842;BME280;62184;52.006;5.924;2022-07-29T01:45:43;100910.75;;;15.51;58.29
73842;BME280;62184;52.006;5.924;2022-07-29T01:48:18;100920.66;;;15.51;58.49
73842;BME280;62184;52.006;5.924;2022-07-29T01:50:53;100926.09;;;15.49;58.21
73842;BME280;62184;52.006;5.924;2022-07-29T01:53:27;100917.91;;;15.52;58.22
73842;BME280;62184;52.006;5.924;2022-07-29T01:55:59;100922.34;;;15.53;58.22
73842;BME280;62184;52.006;5.924;2022-07-29T01:58:28;100920.59;;;15.52;58.17
73842;BME280;62184;52.006;5.924;2022-07-29T02:01:01;100926.84;;;15.53;58.06
73842;BME280;62184;52.006;5.924;2022-07-29T02:03:31;100924.22;;;15.51;58.02
73842;BME280;62184;52.006;5.924;2022-07-29T02:06:01;100918.03;;;15.49;58.12
73842;BME280;62184;52.006;5.924;2022-07-29T02:08:32;100928.94;;;15.46;58.14
73842;BME280;62184;52.006;5.924;2022-07-29T02:11:02;100928.94;;;15.46;58.02
73842;BME280;62184;52.006;5.924;2022-07-29T02:13:31;100929.75;;;15.48;57.89
73842;BME280;62184;52.006;5.924;2022-07-29T02:16:06;100931.41;;;15.51;57.99
73842;BME280;62184;52.006;5.924;2022-07-29T02:18:36;100944.81;;;15.52;58.01
73842;BME280;62184;52.006;5.924;2022-07-29T02:21:05;100955.53;;;15.54;57.91
73842;BME280;62184;52.006;5.924;2022-07-29T02:23:33;100954.53;;;15.56;57.83
73842;BME280;62184;52.006;5.924;2022-07-29T02:26:03;100960.69;;;15.58;57.43
73842;BME280;62184;52.006;5.924;2022-07-29T02:28:32;100962.50;;;15.58;57.54
73842;BME280;62184;52.006;5.924;2022-07-29T02:31:03;100957.06;;;15.59;57.91
73842;BME280;62184;52.006;5.924;2022-07-29T02:33:31;100955.25;;;15.60;57.90
73842;BME280;62184;52.006;5.924;2022-07-29T02:35:59;100951.75;;;15.58;57.70
73842;BME280;62184;52.006;5.924;2022-07-29T02:38:28;100950.16;;;15.54;58.12
73842;BME280;62184;52.006;5.924;2022-07-29T02:40:58;100938.63;;;15.50;57.97
73842;BME280;62184;52.006;5.924;2022-07-29T02:43:27;100936.88;;;15.49;57.86
73842;BME280;62184;52.006;5.924;2022-07-29T02:45:58;100937.84;;;15.48;58.04
73842;BME280;62184;52.006;5.924;2022-07-29T02:48:34;100942.41;;;15.46;58.66
73842;BME280;62184;52.006;5.924;2022-07-29T02:51:08;100941.72;;;15.41;58.52
73842;BME280;62184;52.006;5.924;2022-07-29T02:53:42;100936.53;;;15.37;58.55
73842;BME280;62184;52.006;5.924;2022-07-29T02:56:14;100934.91;;;15.32;58.65
73842;BME280;62184;52.006;5.924;2022-07-29T02:58:49;100933.25;;;15.30;58.71
73842;BME280;62184;52.006;5.924;2022-07-29T03:01:23;100923.59;;;15.24;59.08
73842;BME280;62184;52.006;5.924;2022-07-29T03:03:54;100926.44;;;15.21;59.29
73842;BME280;62184;52.006;5.924;2022-07-29T03:06:23;100928.44;;;15.16;59.01
73842;BME280;62184;52.006;5.924;2022-07-29T03:08:53;100925.81;;;15.15;59.11
73842;BME280;62184;52.006;5.924;2022-07-29T03:11:21;100915.19;;;15.12;59.32
73842;BME280;62184;52.006;5.924;2022-07-29T03:13:49;100910.84;;;15.08;59.23
73842;BME280;62184;52.006;5.924;2022-07-29T03:16:18;100915.69;;;15.00;60.04
73842;BME280;62184;52.006;5.924;2022-07-29T03:18:46;100907.28;;;14.87;60.61
73842;BME280;62184;52.006;5.924;2022-07-29T03:21:16;100909.72;;;14.71;61.53
73842;BME280;62184;52.006;5.924;2022-07-29T03:23:43;100903.28;;;14.52;61.84
73842;BME280;62184;52.006;5.924;2022-07-29T03:26:10;100905.09;;;14.30;63.51
73842;BME280;62184;52.006;5.924;2022-07-29T03:28:37;100903.16;;;14.10;64.66
73842;BME280;62184;52.006;5.924;2022-07-29T03:31:03;100892.06;;;13.96;64.70
73842;BME280;62184;52.006;5.924;2022-07-29T03:33:30;100881.78;;;13.84;65.30
73842;BME280;62184;52.006;5.924;2022-07-29T03:35:56;100883.00;;;13.75;65.87
73842;BME280;62184;52.006;5.924;2022-07-29T03:38:28;100879.91;;;13.62;66.51
73842;BME280;62184;52.006;5.924;2022-07-29T03:41:00;100869.38;;;13.56;66.45
73842;BME280;62184;52.006;5.924;2022-07-29T03:43:35;100859.75;;;13.51;67.06
73842;BME280;62184;52.006;5.924;2022-07-29T03:46:06;100857.34;;;13.43;67.17
73842;BME280;62184;52.006;5.924;2022-07-29T03:48:37;100859.47;;;13.33;67.28
73842;BME280;62184;52.006;5.924;2022-07-29T03:51:08;100874.81;;;13.30;67.85
73842;BME280;62184;52.006;5.924;2022-07-29T03:53:37;100875.69;;;13.30;67.67
73842;BME280;62184;52.006;5.924;2022-07-29T03:56:05;100872.88;;;13.33;67.77
73842;BME280;62184;52.006;5.924;2022-07-29T03:58:33;100871.13;;;13.32;68.26
73842;BME280;62184;52.006;5.924;2022-07-29T04:01:00;100872.22;;;13.27;68.36
73842;BME280;62184;52.006;5.924;2022-07-29T04:03:27;100872.50;;;13.19;68.42
73842;BME280;62184;52.006;5.924;2022-07-29T04:06:02;100876.09;;;13.18;69.07
73842;BME280;62184;52.006;5.924;2022-07-29T04:08:30;100872.50;;;13.19;68.94
73842;BME280;62184;52.006;5.924;2022-07-29T04:10:59;100863.53;;;13.20;69.11
73842;BME280;62184;52.006;5.924;2022-07-29T04:13:25;100870.81;;;13.15;69.34
73842;BME280;62184;52.006;5.924;2022-07-29T04:15:52;100863.84;;;13.11;69.20
73842;BME280;62184;52.006;5.924;2022-07-29T04:18:18;100864.84;;;13.07;70.35
73842;BME280;62184;52.006;5.924;2022-07-29T04:20:45;100861.44;;;13.03;70.21
73842;BME280;62184;52.006;5.924;2022-07-29T04:23:11;100873.13;;;13.01;71.05
73842;BME280;62184;52.006;5.924;2022-07-29T04:25:38;100875.84;;;12.99;70.94
73842;BME280;62184;52.006;5.924;2022-07-29T04:28:08;100876.84;;;12.97;70.79
73842;BME280;62184;52.006;5.924;2022-07-29T04:30:36;100878.72;;;12.95;70.91
73842;BME280;62184;52.006;5.924;2022-07-29T04:33:05;100881.38;;;12.95;71.19
73842;BME280;62184;52.006;5.924;2022-07-29T04:35:34;100893.91;;;12.94;71.09
73842;BME280;62184;52.006;5.924;2022-07-29T04:38:02;100899.28;;;12.94;71.36
73842;BME280;62184;52.006;5.924;2022-07-29T04:40:28;100908.91;;;13.00;71.24
73842;BME280;62184;52.006;5.924;2022-07-29T04:42:55;100912.19;;;13.08;71.14
73842;BME280;62184;52.006;5.924;2022-07-29T04:45:24;100899.41;;;13.16;71.14
73842;BME280;62184;52.006;5.924;2022-07-29T04:47:50;100896.69;;;13.18;71.28
73842;BME280;62184;52.006;5.924;2022-07-29T04:50:17;100886.03;;;13.15;71.04
73842;BME280;62184;52.006;5.924;2022-07-29T04:52:43;100878.16;;;13.10;72.18
73842;BME280;62184;52.006;5.924;2022-07-29T04:55:10;100882.69;;;13.08;72.56
73842;BME280;62184;52.006;5.924;2022-07-29T04:57:36;100881.94;;;13.04;72.50
73842;BME280;62184;52.006;5.924;2022-07-29T05:00:04;100878.44;;;13.02;72.30
73842;BME280;62184;52.006;5.924;2022-07-29T05:02:34;100875.75;;;13.02;72.00
73842;BME280;62184;52.006;5.924;2022-07-29T05:05:01;100889.22;;;13.01;72.12
73842;BME280;62184;52.006;5.924;2022-07-29T05:07:27;100887.41;;;13.01;72.04
73842;BME280;62184;52.006;5.924;2022-07-29T05:09:54;100886.44;;;13.04;72.05
73842;BME280;62184;52.006;5.924;2022-07-29T05:12:20;100892.59;;;13.06;71.92
73842;BME280;62184;52.006;5.924;2022-07-29T05:14:46;100887.31;;;13.04;72.36
73842;BME280;62184;52.006;5.924;2022-07-29T05:17:13;100887.38;;;13.03;72.55
73842;BME280;62184;52.006;5.924;2022-07-29T05:19:42;100892.72;;;13.03;72.38
73842;BME280;62184;52.006;5.924;2022-07-29T05:22:08;100893.47;;;13.06;72.16
73842;BME280;62184;52.006;5.924;2022-07-29T05:24:35;100897.88;;;13.09;72.32
73842;BME280;62184;52.006;5.924;2022-07-29T05:27:01;100905.81;;;13.12;72.26
73842;BME280;62184;52.006;5.924;2022-07-29T05:29:28;100908.31;;;13.17;72.12
73842;BME280;62184;52.006;5.924;2022-07-29T05:31:54;100918.00;;;13.22;71.80
73842;BME280;62184;52.006;5.924;2022-07-29T05:34:20;100928.50;;;13.28;72.05
73842;BME280;62184;52.006;5.924;2022-07-29T05:36:49;100937.16;;;13.36;72.05
73842;BME280;62184;52.006;5.924;2022-07-29T05:39:16;100937.81;;;13.45;72.28
73842;BME280;62184;52.006;5.924;2022-07-29T05:41:42;100933.09;;;13.51;71.92
73842;BME280;62184;52.006;5.924;2022-07-29T05:44:08;100943.50;;;13.60;71.61
73842;BME280;62184;52.006;5.924;2022-07-29T05:46:35;100939.59;;;13.69;71.79
73842;BME280;62184;52.006;5.924;2022-07-29T05:49:01;100945.56;;;13.77;72.00
73842;BME280;62184;52.006;5.924;2022-07-29T05:51:27;100938.31;;;13.80;71.59
73842;BME280;62184;52.006;5.924;2022-07-29T05:53:56;100943.59;;;13.82;71.85
73842;BME280;62184;52.006;5.924;2022-07-29T05:56:23;100940.81;;;13.85;71.77
73842;BME280;62184;52.006;5.924;2022-07-29T05:58:49;100944.38;;;13.86;71.80
73842;BME280;62184;52.006;5.924;2022-07-29T06:01:16;100947.88;;;13.88;71.31
73842;BME280;62184;52.006;5.924;2022-07-29T06:03:42;100945.88;;;13.93;71.23
73842;BME280;62184;52.006;5.924;2022-07-29T06:06:08;100945.66;;;13.99;71.28
73842;BME280;62184;52.006;5.924;2022-07-29T06:08:35;100940.06;;;14.05;71.24
73842;BME280;62184;52.006;5.924;2022-07-29T06:11:05;100940.72;;;14.11;71.35
73842;BME280;62184;52.006;5.924;2022-07-29T06:13:32;100934.22;;;14.17;70.79
73842;BME280;62184;52.006;5.924;2022-07-29T06:15:58;100936.59;;;14.25;70.73
73842;BME280;62184;52.006;5.924;2022-07-29T06:18:25;100943.63;;;14.29;70.44
73842;BME280;62184;52.006;5.924;2022-07-29T06:20:52;100939.00;;;14.32;69.81
73842;BME280;62184;52.006;5.924;2022-07-29T06:23:19;100934.44;;;14.34;69.58
73842;BME280;62184;52.006;5.924;2022-07-29T06:25:46;100929.69;;;14.41;69.85
73842;BME280;62184;52.006;5.924;2022-07-29T06:28:15;100934.78;;;14.48;69.76
73842;BME280;62184;52.006;5.924;2022-07-29T06:30:41;100932.91;;;14.50;69.56
73842;BME280;62184;52.006;5.924;2022-07-29T06:33:08;100933.72;;;14.54;69.25
73842;BME280;62184;52.006;5.924;2022-07-29T06:35:34;100930.72;;;14.62;68.95
73842;BME280;62184;52.006;5.924;2022-07-29T06:38:00;100940.22;;;14.70;68.63
73842;BME280;62184;52.006;5.924;2022-07-29T06:40:27;100934.47;;;14.79;68.66
73842;BME280;62184;52.006;5.924;2022-07-29T06:42:53;100930.47;;;14.89;68.49
73842;BME280;62184;52.006;5.924;2022-07-29T06:45:22;100926.44;;;15.00;68.21
73842;BME280;62184;52.006;5.924;2022-07-29T06:47:49;100919.75;;;15.10;67.86
73842;BME280;62184;52.006;5.924;2022-07-29T06:50:15;100927.44;;;15.19;67.67
73842;BME280;62184;52.006;5.924;2022-07-29T06:52:42;100922.59;;;15.27;67.47
73842;BME280;62184;52.006;5.924;2022-07-29T06:55:09;100927.69;;;15.33;67.34
73842;BME280;62184;52.006;5.924;2022-07-29T06:57:35;100922.97;;;15.40;67.01
73842;BME280;62184;52.006;5.924;2022-07-29T07:00:02;100914.53;;;15.47;66.91
73842;BME280;62184;52.006;5.924;2022-07-29T07:02:32;100918.56;;;15.57;67.03
73842;BME280;62184;52.006;5.924;2022-07-29T07:04:58;100926.00;;;15.73;66.36
73842;BME280;62184;52.006;5.924;2022-07-29T07:07:24;100927.47;;;15.80;66.55
73842;BME280;62184;52.006;5.924;2022-07-29T07:09:51;100930.63;;;15.89;66.07
73842;BME280;62184;52.006;5.924;2022-07-29T07:12:17;100924.09;;;15.95;65.68
73842;BME280;62184;52.006;5.924;2022-07-29T07:14:44;100932.69;;;16.03;65.90
73842;BME280;62184;52.006;5.924;2022-07-29T07:17:10;100929.66;;;16.11;65.70
73842;BME280;62184;52.006;5.924;2022-07-29T07:19:39;100936.44;;;16.19;65.37
73842;BME280;62184;52.006;5.924;2022-07-29T07:22:05;100932.66;;;16.23;65.19
73842;BME280;62184;52.006;5.924;2022-07-29T07:24:32;100929.97;;;16.23;64.99
73842;BME280;62184;52.006;5.924;2022-07-29T07:26:58;100926.47;;;16.21;64.73
73842;BME280;62184;52.006;5.924;2022-07-29T07:29:24;100930.84;;;16.24;64.94
73842;BME280;62184;52.006;5.924;2022-07-29T07:31:51;100923.41;;;16.29;64.71
73842;BME280;62184;52.006;5.924;2022-07-29T07:34:17;100933.16;;;16.31;64.54
73842;BME280;62184;52.006;5.924;2022-07-29T07:36:46;100930.31;;;16.34;64.41
73842;BME280;62184;52.006;5.924;2022-07-29T07:39:12;100932.00;;;16.37;64.30
73842;BME280;62184;52.006;5.924;2022-07-29T07:41:39;100935.50;;;16.39;64.18
73842;BME280;62184;52.006;5.924;2022-07-29T07:44:05;100935.28;;;16.43;63.81
73842;BME280;62184;52.006;5.924;2022-07-29T07:46:31;100927.03;;;16.47;63.57
73842;BME280;62184;52.006;5.924;2022-07-29T07:48:58;100925.22;;;16.47;63.89
73842;BME280;62184;52.006;5.924;2022-07-29T07:51:24;100929.50;;;16.51;64.07
73842;BME280;62184;52.006;5.924;2022-07-29T07:53:53;100924.78;;;16.56;63.88
73842;BME280;62184;52.006;5.924;2022-07-29T07:56:19;100930.78;;;16.63;63.95
73842;BME280;62184;52.006;5.924;2022-07-29T07:58:46;100926.78;;;16.71;63.67
73842;BME280;62184;52.006;5.924;2022-07-29T08:01:12;100925.44;;;16.80;63.79
73842;BME280;62184;52.006;5.924;2022-07-29T08:03:39;100933.09;;;16.89;63.43
73842;BME280;62184;52.006;5.924;2022-07-29T08:06:05;100936.34;;;16.96;63.15
73842;BME280;62184;52.006;5.924;2022-07-29T08:08:32;100938.91;;;16.99;63.09
73842;BME280;62184;52.006;5.924;2022-07-29T08:11:01;100940.47;;;17.03;63.21
73842;BME280;62184;52.006;5.924;2022-07-29T08:13:27;100938.41;;;17.08;63.35
73842;BME280;62184;52.006;5.924;2022-07-29T08:15:54;100934.31;;;17.18;63.17
73842;BME280;62184;52.006;5.924;2022-07-29T08:18:21;100932.03;;;17.28;63.08
73842;BME280;62184;52.006;5.924;2022-07-29T08:20:47;100935.75;;;17.42;63.19
73842;BME280;62184;52.006;5.924;2022-07-29T08:23:14;100940.53;;;17.54;62.51
73842;BME280;62184;52.006;5.924;2022-07-29T08:25:40;100942.00;;;17.62;62.52
73842;BME280;62184;52.006;5.924;2022-07-29T08:28:09;100943.41;;;17.69;62.01
73842;BME280;62184;52.006;5.924;2022-07-29T08:30:35;100941.25;;;17.75;62.22
73842;BME280;62184;52.006;5.924;2022-07-29T08:33:02;100937.19;;;17.84;61.95
73842;BME280;62184;52.006;5.924;2022-07-29T08:35:29;100941.22;;;17.92;61.74
73842;BME280;62184;52.006;5.924;2022-07-29T08:37:55;100932.97;;;17.95;61.46
73842;BME280;62184;52.006;5.924;2022-07-29T08:40:22;100935.53;;;17.99;61.16
73842;BME280;62184;52.006;5.924;2022-07-29T08:42:49;100934.56;;;18.00;61.11
73842;BME280;62184;52.006;5.924;2022-07-29T08:45:19;100940.44;;;18.08;61.05
73842;BME280;62184;52.006;5.924;2022-07-29T08:47:47;100942.88;;;18.12;60.88
73842;BME280;62184;52.006;5.924;2022-07-29T08:50:14;100946.38;;;18.14;60.68
73842;BME280;62184;52.006;5.924;2022-07-29T08:52:40;100950.63;;;18.18;60.89
73842;BME280;62184;52.006;5.924;2022-07-29T08:55:08;100947.69;;;18.23;60.72
73842;BME280;62184;52.006;5.924;2022-07-29T08:57:38;100951.72;;;18.31;60.60
73842;BME280;62184;52.006;5.924;2022-07-29T09:00:07;100946.75;;;18.40;60.52
73842;BME280;62184;52.006;5.924;2022-07-29T09:02:39;100955.47;;;18.45;60.38
73842;BME280;62184;52.006;5.924;2022-07-29T09:05:07;100960.75;;;18.48;60.45
73842;BME280;62184;52.006;5.924;2022-07-29T09:07:35;100959.47;;;18.55;60.37
73842;BME280;62184;52.006;5.924;2022-07-29T09:10:04;100959.38;;;18.56;59.98
73842;BME280;62184;52.006;5.924;2022-07-29T09:12:31;100961.13;;;18.57;59.93
73842;BME280;62184;52.006;5.924;2022-07-29T09:14:58;100969.06;;;18.60;59.86
73842;BME280;62184;52.006;5.924;2022-07-29T09:17:42;100974.75;;;18.72;60.03
73842;BME280;62184;52.006;5.924;2022-07-29T09:20:11;100970.56;;;18.82;59.86
73842;BME280;62184;52.006;5.924;2022-07-29T09:22:39;100974.31;;;18.95;59.83
73842;BME280;62184;52.006;5.924;2022-07-29T09:25:06;100975.59;;;19.03;59.35
73842;BME280;62184;52.006;5.924;2022-07-29T09:27:33;100971.56;;;19.11;59.16
73842;BME280;62184;52.006;5.924;2022-07-29T09:30:02;100966.88;;;19.14;58.52
73842;BME280;62184;52.006;5.924;2022-07-29T09:32:31;100968.53;;;19.17;58.53
73842;BME280;62184;52.006;5.924;2022-07-29T09:35:16;100959.41;;;19.18;58.85
73842;BME280;62184;52.006;5.924;2022-07-29T09:37:44;100963.38;;;19.12;58.91
73842;BME280;62184;52.006;5.924;2022-07-29T09:40:13;100967.25;;;19.08;58.64
73842;BME280;62184;52.006;5.924;2022-07-29T09:42:41;100958.78;;;18.98;59.08
73842;BME280;62184;52.006;5.924;2022-07-29T09:45:09;100959.22;;;18.91;59.55
73842;BME280;62184;52.006;5.924;2022-07-29T09:47:43;100962.38;;;18.83;59.70
73842;BME280;62184;52.006;5.924;2022-07-29T09:50:11;100974.59;;;18.75;59.27
73842;BME280;62184;52.006;5.924;2022-07-29T09:52:48;100975.69;;;18.70;60.10
73842;BME280;62184;52.006;5.924;2022-07-29T09:55:17;100986.53;;;18.70;59.88
73842;BME280;62184;52.006;5.924;2022-07-29T09:57:44;100981.72;;;18.76;59.69
73842;BME280;62184;52.006;5.924;2022-07-29T10:00:13;100971.44;;;18.82;59.36
73842;BME280;62184;52.006;5.924;2022-07-29T10:02:42;100966.53;;;18.89;59.12
73842;BME280;62184;52.006;5.924;2022-07-29T10:05:19;100965.13;;;18.97;59.48
73842;BME280;62184;52.006;5.924;2022-07-29T10:07:51;100971.88;;;19.06;58.97
73842;BME280;62184;52.006;5.924;2022-07-29T10:10:20;100969.59;;;19.14;59.21
73842;BME280;62184;52.006;5.924;2022-07-29T10:12:50;100966.13;;;19.26;59.47
73842;BME280;62184;52.006;5.924;2022-07-29T10:15:18;100960.44;;;19.47;58.88
73842;BME280;62184;52.006;5.924;2022-07-29T10:17:47;100956.56;;;19.66;58.19
73842;BME280;62184;52.006;5.924;2022-07-29T10:20:15;100956.00;;;19.90;58.07
73842;BME280;62184;52.006;5.924;2022-07-29T10:22:42;100955.34;;;20.14;57.21
73842;BME280;62184;52.006;5.924;2022-07-29T10:25:11;100969.63;;;20.32;56.92
73842;BME280;62184;52.006;5.924;2022-07-29T10:27:38;100964.47;;;20.56;56.64
73842;BME280;62184;52.006;5.924;2022-07-29T10:30:06;100957.03;;;20.86;56.24
73842;BME280;62184;52.006;5.924;2022-07-29T10:32:39;100957.78;;;21.17;54.92
73842;BME280;62184;52.006;5.924;2022-07-29T10:35:33;100947.72;;;21.44;54.20
73842;BME280;62184;52.006;5.924;2022-07-29T10:38:30;100955.69;;;21.74;53.62
73842;BME280;62184;52.006;5.924;2022-07-29T10:41:33;100955.94;;;22.09;53.27
73842;BME280;62184;52.006;5.924;2022-07-29T10:44:15;100959.16;;;22.52;52.33
73842;BME280;62184;52.006;5.924;2022-07-29T10:46:44;100964.69;;;22.76;51.50
73842;BME280;62184;52.006;5.924;2022-07-29T10:49:13;100958.16;;;23.02;51.40
73842;BME280;62184;52.006;5.924;2022-07-29T10:51:55;100947.81;;;23.31;50.39
73842;BME280;62184;52.006;5.924;2022-07-29T10:54:50;100961.09;;;23.60;49.38
73842;BME280;62184;52.006;5.924;2022-07-29T10:57:25;100955.41;;;23.74;49.53
73842;BME280;62184;52.006;5.924;2022-07-29T11:02:53;100955.00;;;23.91;47.59
73842;BME280;62184;52.006;5.924;2022-07-29T11:05:20;100957.06;;;23.87;47.41
73842;BME280;62184;52.006;5.924;2022-07-29T11:08:20;100953.91;;;23.93;46.92
73842;BME280;62184;52.006;5.924;2022-07-29T11:10:49;100961.13;;;24.17;48.04
73842;BME280;62184;52.006;5.924;2022-07-29T11:13:49;100961.75;;;24.43;46.01
73842;BME280;62184;52.006;5.924;2022-07-29T11:16:19;100963.25;;;24.58;47.13
73842;BME280;62184;52.006;5.924;2022-07-29T11:19:19;100953.94;;;24.83;45.51
73842;BME280;62184;52.006;5.924;2022-07-29T11:21:46;100960.91;;;24.76;46.32
73842;BME280;62184;52.006;5.924;2022-07-29T11:24:14;100962.00;;;24.62;46.35
73842;BME280;62184;52.006;5.924;2022-07-29T11:26:42;100958.78;;;24.57;46.18
73842;BME280;62184;52.006;5.924;2022-07-29T11:29:18;100953.69;;;24.75;46.04
73842;BME280;62184;52.006;5.924;2022-07-29T11:31:47;100952.41;;;25.01;45.84
73842;BME280;62184;52.006;5.924;2022-07-29T11:34:23;100952.13;;;25.26;44.87
73842;BME280;62184;52.006;5.924;2022-07-29T11:37:16;100953.00;;;25.48;43.28
73842;BME280;62184;52.006;5.924;2022-07-29T11:39:45;100945.97;;;25.66;45.00
73842;BME280;62184;52.006;5.924;2022-07-29T11:45:23;100948.72;;;26.07;43.83
73842;BME280;62184;52.006;5.924;2022-07-29T11:47:52;100933.91;;;26.10;44.00
73842;BME280;62184;52.006;5.924;2022-07-29T11:50:28;100938.59;;;25.98;43.37
73842;BME280;62184;52.006;5.924;2022-07-29T11:52:57;100947.97;;;25.85;43.71
73842;BME280;62184;52.006;5.924;2022-07-29T11:55:24;100945.91;;;25.77;44.15
73842;BME280;62184;52.006;5.924;2022-07-29T11:57:52;100948.03;;;25.73;43.44
73842;BME280;62184;52.006;5.924;2022-07-29T12:00:27;100939.66;;;25.54;41.48
73842;BME280;62184;52.006;5.924;2022-07-29T12:02:57;100942.13;;;25.25;43.21
73842;BME280;62184;52.006;5.924;2022-07-29T12:05:33;100932.97;;;25.15;43.23
73842;BME280;62184;52.006;5.924;2022-07-29T12:08:13;100938.66;;;25.34;42.69
73842;BME280;62184;52.006;5.924;2022-07-29T12:10:41;100944.69;;;25.49;42.56
73842;BME280;62184;52.006;5.924;2022-07-29T12:13:09;100938.47;;;25.47;43.05
73842;BME280;62184;52.006;5.924;2022-07-29T12:15:38;100943.16;;;25.56;42.51
73842;BME280;62184;52.006;5.924;2022-07-29T12:18:16;100944.25;;;25.86;41.82
73842;BME280;62184;52.006;5.924;2022-07-29T12:20:45;100941.06;;;26.01;41.14
73842;BME280;62184;52.006;5.924;2022-07-29T12:23:12;100942.19;;;26.19;41.72
73842;BME280;62184;52.006;5.924;2022-07-29T12:25:40;100947.47;;;26.42;41.17
73842;BME280;62184;52.006;5.924;2022-07-29T12:28:09;100946.28;;;26.65;41.31
73842;BME280;62184;52.006;5.924;2022-07-29T12:30:44;100937.72;;;26.99;40.66
73842;BME280;62184;52.006;5.924;2022-07-29T12:33:14;100939.38;;;27.30;40.18
73842;BME280;62184;52.006;5.924;2022-07-29T12:35:44;100933.03;;;27.49;39.81
73842;BME280;62184;52.006;5.924;2022-07-29T12:38:12;100931.03;;;27.60;39.38
73842;BME280;62184;52.006;5.924;2022-07-29T12:40:40;100933.91;;;27.68;38.97
73842;BME280;62184;52.006;5.924;2022-07-29T12:43:08;100938.06;;;27.73;38.83
73842;BME280;62184;52.006;5.924;2022-07-29T12:45:36;100937.34;;;27.90;38.48
73842;BME280;62184;52.006;5.924;2022-07-29T12:48:07;100937.59;;;28.06;38.46
73842;BME280;62184;52.006;5.924;2022-07-29T12:50:34;100935.09;;;28.22;38.13
73842;BME280;62184;52.006;5.924;2022-07-29T12:53:12;100935.09;;;28.22;36.43
73842;BME280;62184;52.006;5.924;2022-07-29T12:55:42;100931.94;;;28.17;37.08
73842;BME280;62184;52.006;5.924;2022-07-29T12:58:10;100918.09;;;28.09;36.99
73842;BME280;62184;52.006;5.924;2022-07-29T13:00:37;100925.63;;;28.07;37.11
73842;BME280;62184;52.006;5.924;2022-07-29T13:03:06;100930.06;;;28.18;36.89
73842;BME280;62184;52.006;5.924;2022-07-29T13:05:40;100918.84;;;28.48;36.10
73842;BME280;62184;52.006;5.924;2022-07-29T13:08:14;100914.94;;;28.78;35.17